Strona główna
METAR-TAF:

METAR-TAF

Lotnisko :

Platforma wiertnicza

P11-b, Holandia

Szerokość geograficzna: 52-21-36N, Długość geograficzna: 3-20-30E, wysokość: 24 m

Aktualna obserwacja pogody

Raport powstał 41 minut temu, godzina 22:55 UTC
Wiatr 20 kt od zachodnio-północny zachód, zmienny między południowy zachód i północ
Temperatura 7°C
Wilgotność 66%
Ciśnienie 1022 hPa
Widzialność 10 km lub więcej

METAR: EHPG 232255Z AUTO 29020KT 220V350 9999 NSC 07/01 Q1022

czas: 00:36 (23:36 UTC)


TAF: brakujący

Obserwacja i prognoza pogody dla ponad 4000 lotnisk (raport METAR i TAF).

Dostępne stacje oznaczono żółtymi i czerwonymi punktami na mapie.

Najedź kursorem aby zobaczyć nazwę stacji.

Kliknij aby zobaczyć obserwacje i prognozy pogody.

Aby zmienić mapę: kliknij na zielony przycisk z czarnym krzyżykiem, aby powiększyć; na zielony przycisk z myślnikiem, aby pomniejszyć; na zielone strzałki, aby przejść do map sąsiednich.


METAR-TAF: